Time;durP1;ratioP1;P1;durP2;ratioP2;P2;SDS_P1;SDS_P2;PMS_P1;PMS_P2;Temp;Humidity;BMP_temperature;BMP_pressure;BME280_temperature;BME280_humidity;BME280_pressure;Samples;Min_cycle;Max_cycle;Signal;HPM_P1;HPM_P2
2022/02/06 00:00:40;;;;;;;5.63;2.60;;;;;;;-1.47;72.33;96150.33;1750796;81;21497;-73
2022/02/06 00:03:08;;;;;;;3.77;2.07;;;;;;;-1.50;72.62;96149.36;1750831;82;21038;-73
2022/02/06 00:05:35;;;;;;;5.43;2.60;;;;;;;-1.58;72.43;96153.83;1751028;82;21019;-73
2022/02/06 00:08:05;;;;;;;4.57;2.77;;;;;;;-1.67;72.44;96152.61;1721593;82;20995;-73
2022/02/06 00:10:30;;;;;;;4.87;2.60;;;;;;;-1.68;72.75;96152.15;1750684;82;21524;-73
2022/02/06 00:12:56;;;;;;;4.63;2.97;;;;;;;-1.62;72.60;96148.06;1751095;82;21044;-73
2022/02/06 00:15:23;;;;;;;5.27;2.77;;;;;;;-1.57;72.62;96152.12;1750874;81;21090;-73
2022/02/06 00:17:50;;;;;;;5.57;2.63;;;;;;;-1.62;72.48;96151.07;1750863;82;21003;-73
2022/02/06 00:20:17;;;;;;;4.80;2.90;;;;;;;-1.69;72.71;96150.37;1750865;82;21015;-73
2022/02/06 00:22:54;;;;;;;4.07;1.90;;;;;;;-1.76;72.82;96157.04;1751002;81;21003;-73
2022/02/06 00:26:11;;;;;;;4.53;2.50;;;;;;;-1.79;73.27;96159.48;1750502;82;21067;-75
2022/02/06 00:30:41;;;;;;;4.63;3.17;;;;;;;-1.93;73.26;96145.17;1751093;81;21050;-73
2022/02/06 00:33:08;;;;;;;3.37;2.23;;;;;;;-1.96;73.15;96139.05;1748704;82;21489;-73
2022/02/06 00:35:52;;;;;;;4.50;2.80;;;;;;;-2.02;73.22;96141.39;1750101;82;21485;-73
2022/02/06 00:38:10;;;;;;;7.37;2.73;;;;;;;-1.99;73.50;96138.03;1747508;82;21038;-73
2022/02/06 00:43:17;;;;;;;2.83;2.40;;;;;;;-2.01;73.08;96131.53;1750957;81;20983;-73
2022/02/06 00:45:44;;;;;;;5.07;3.03;;;;;;;-2.11;73.25;96135.01;1750924;82;21074;-73
2022/02/06 00:48:10;;;;;;;4.63;2.70;;;;;;;-2.19;73.73;96142.47;1750879;81;21055;-73
2022/02/06 00:50:41;;;;;;;4.00;2.67;;;;;;;-2.23;73.91;96147.91;1750931;81;21536;-72
2022/02/06 00:53:13;;;;;;;4.83;2.80;;;;;;;-2.20;73.89;96148.02;1750577;82;20991;-73
2022/02/06 00:55:34;;;;;;;4.27;2.33;;;;;;;-2.20;73.85;96145.44;1749512;82;21046;-72
2022/02/06 00:58:01;;;;;;;4.67;2.80;;;;;;;-2.32;74.00;96138.91;1751169;82;20999;-72
2022/02/06 01:00:28;;;;;;;4.97;2.90;;;;;;;-2.37;74.08;96136.14;1750917;81;21109;-72
2022/02/06 01:02:54;;;;;;;4.97;2.50;;;;;;;-2.40;74.40;96138.19;1750688;82;21010;-72
2022/02/06 01:05:21;;;;;;;4.93;2.73;;;;;;;-2.37;74.40;96141.30;1751032;82;21015;-72
2022/02/06 01:07:48;;;;;;;6.93;2.97;;;;;;;-2.30;74.34;96125.64;1751180;81;21034;-72
2022/02/06 01:10:15;;;;;;;4.97;2.40;;;;;;;-2.28;74.27;96121.42;1750729;82;21035;-72
2022/02/06 01:12:47;;;;;;;6.70;2.80;;;;;;;-2.24;74.08;96114.27;1751076;82;21065;-72
2022/02/06 01:15:19;;;;;;;4.67;2.77;;;;;;;-2.25;74.11;96115.94;1750253;82;21046;-72
2022/02/06 01:17:54;;;;;;;4.03;2.50;;;;;;;-2.24;73.78;96118.14;1748511;82;21025;-72
2022/02/06 01:20:20;;;;;;;3.20;2.23;;;;;;;-2.26;73.79;96116.78;1749098;82;21549;-72
2022/02/06 01:22:56;;;;;;;3.67;2.70;;;;;;;-2.29;73.71;96124.42;1750559;82;20979;-72
2022/02/06 01:25:27;;;;;;;4.60;2.40;;;;;;;-2.33;73.49;96125.11;1750300;82;20999;-72
2022/02/06 01:27:59;;;;;;;6.50;2.30;;;;;;;-2.41;73.63;96119.64;1751072;81;21128;-73
2022/02/06 01:30:32;;;;;;;4.27;2.73;;;;;;;-2.48;73.67;96124.09;1759546;81;21041;-73
2022/02/06 01:32:56;;;;;;;5.00;2.73;;;;;;;-2.56;73.87;96113.87;1759013;81;21085;-73
2022/02/06 01:35:28;;;;;;;6.40;2.50;;;;;;;-2.54;73.98;96116.53;1760234;81;21046;-72
2022/02/06 01:43:10;;;;;;;6.17;3.50;;;;;;;-2.59;74.10;96111.17;1760552;81;21034;-72
2022/02/06 02:07:33;;;;;;;5.77;2.50;;;;;;;-2.77;74.51;96098.78;1716790;81;21019;-71
2022/02/06 02:18:24;;;;;;;3.57;2.13;;;;;;;-2.80;74.83;96102.12;1760340;81;21065;-72
2022/02/06 02:47:15;;;;;;;5.27;3.00;;;;;;;-3.22;73.49;96093.10;1760532;81;21463;-71
2022/02/06 02:49:46;;;;;;;5.07;3.00;;;;;;;-3.35;74.05;96101.13;1759979;81;21054;-71
2022/02/06 02:52:17;;;;;;;3.37;2.10;;;;;;;-3.37;74.65;96098.91;1759837;81;21430;-71
2022/02/06 02:54:39;;;;;;;7.73;2.47;;;;;;;-3.44;74.35;96092.59;1758957;81;21025;-71
2022/02/06 02:57:17;;;;;;;3.67;1.90;;;;;;;-3.60;74.41;96090.19;1760392;81;21025;-71
2022/02/06 03:02:19;;;;;;;4.07;1.97;;;;;;;-3.83;75.46;96090.44;1760387;81;21030;-72
2022/02/06 03:04:51;;;;;;;5.37;2.87;;;;;;;-3.88;75.56;96085.48;1760302;81;21011;-72
2022/02/06 03:07:14;;;;;;;5.40;2.47;;;;;;;-3.82;75.90;96083.20;1759878;81;20975;-72
2022/02/06 03:09:43;;;;;;;4.60;2.80;;;;;;;-3.69;75.82;96084.20;1760389;81;21013;-72
2022/02/06 03:12:13;;;;;;;4.30;2.67;;;;;;;-3.79;75.08;96095.80;1760343;81;21073;-71
2022/02/06 03:14:45;;;;;;;6.93;2.97;;;;;;;-3.88;75.01;96095.80;1760707;81;21145;-72
2022/02/06 03:17:10;;;;;;;5.60;2.80;;;;;;;-3.85;75.40;96101.12;1759520;81;20994;-72
2022/02/06 03:19:53;;;;;;;4.93;2.83;;;;;;;-4.00;75.68;96091.00;1760356;81;21557;-72
2022/02/06 03:22:08;;;;;;;3.93;2.23;;;;;;;-4.02;75.33;96092.63;1757228;81;21425;-72
2022/02/06 03:24:43;;;;;;;3.70;2.23;;;;;;;-4.13;75.34;96099.88;1760212;81;21014;-72
2022/02/06 03:27:07;;;;;;;2.20;1.40;;;;;;;-4.08;75.63;96085.88;1760000;81;20971;-71
2022/02/06 03:29:33;;;;;;;2.87;1.80;;;;;;;-4.06;75.90;96095.45;1754294;81;21066;-73
2022/02/06 03:32:00;;;;;;;7.90;2.40;;;;;;;-4.12;76.17;96093.89;1751072;82;21018;-71
2022/02/06 03:34:26;;;;;;;7.80;2.70;;;;;;;-4.17;76.31;96088.94;1751027;82;20991;-71
2022/02/06 03:36:53;;;;;;;5.67;2.67;;;;;;;-4.23;75.70;96091.25;1750906;81;21074;-72
2022/02/06 03:39:23;;;;;;;5.50;2.67;;;;;;;-4.36;76.09;96097.13;1751186;82;20995;-71
2022/02/06 03:44:27;;;;;;;12.13;5.43;;;;;;;-4.35;76.00;96085.99;1751016;81;21504;-72
2022/02/06 03:47:05;;;;;;;11.55;5.85;;;;;;;-4.45;76.37;96097.09;1735381;82;28174;-72
2022/02/06 03:49:35;;;;;;;9.93;5.30;;;;;;;-4.29;76.41;96098.27;1750110;82;20995;-71
2022/02/06 03:51:56;;;;;;;7.03;3.30;;;;;;;-4.28;76.26;96088.84;1749754;82;21054;-71
2022/02/06 03:54:23;;;;;;;4.43;2.57;;;;;;;-4.38;76.12;96083.70;1750840;82;21134;-72
2022/02/06 03:56:52;;;;;;;6.60;3.90;;;;;;;-4.38;76.29;96091.02;1750926;82;21094;-72
2022/02/06 03:59:18;;;;;;;7.43;4.37;;;;;;;-4.44;76.32;96097.15;1751052;81;21051;-72
2022/02/06 04:01:45;;;;;;;7.70;4.53;;;;;;;-4.50;76.13;96094.72;1751078;81;21003;-72
2022/02/06 04:04:11;;;;;;;6.57;3.03;;;;;;;-4.49;76.83;96081.89;1750829;81;21313;-72
2022/02/06 04:06:38;;;;;;;11.13;5.10;;;;;;;-4.51;76.35;96088.69;1750995;82;21517;-72
2022/02/06 04:09:09;;;;;;;14.13;6.10;;;;;;;-4.57;76.61;96087.97;1751167;82;20976;-72
2022/02/06 04:11:45;;;;;;;28.47;13.87;;;;;;;-4.52;77.06;96081.75;1750475;82;21015;-72
2022/02/06 04:14:21;;;;;;;19.70;8.50;;;;;;;-4.63;76.10;96085.12;1748545;82;21026;-71
2022/02/06 04:16:49;;;;;;;24.93;13.90;;;;;;;-4.70;76.66;96085.64;1746905;82;21587;-71
2022/02/06 04:19:16;;;;;;;20.57;9.33;;;;;;;-4.86;76.74;96089.18;1747390;82;21003;-72
2022/02/06 04:21:32;;;;;;;17.63;8.47;;;;;;;-4.85;77.13;96084.91;1747762;82;21039;-71
2022/02/06 04:23:59;;;;;;;14.90;6.67;;;;;;;-4.77;77.17;96080.12;1751171;82;21497;-71
2022/02/06 04:26:26;;;;;;;10.60;4.37;;;;;;;-4.83;77.00;96071.72;1750976;82;21104;-71
2022/02/06 04:28:53;;;;;;;6.20;3.40;;;;;;;-4.76;77.17;96067.72;1750873;82;21066;-71
2022/02/06 04:31:20;;;;;;;5.30;2.50;;;;;;;-4.75;77.00;96073.36;1750966;81;21010;-71
2022/02/06 04:33:50;;;;;;;6.83;3.43;;;;;;;-4.77;76.93;96070.70;1750881;82;21050;-71
2022/02/06 04:36:15;;;;;;;12.23;5.67;;;;;;;-4.84;76.98;96069.55;1751063;81;21019;-71
2022/02/06 04:41:30;;;;;;;38.67;13.63;;;;;;;-4.88;77.21;96071.90;1750959;82;20979;-71
2022/02/06 05:15:56;;;;;;;26.87;12.07;;;;;;;-5.04;76.98;96070.25;1751237;81;20991;-71
2022/02/06 05:21:09;;;;;;;33.83;17.97;;;;;;;-5.25;77.55;96063.27;1751441;81;21003;-71
2022/02/06 05:31:56;;;;;;;28.10;12.20;;;;;;;-5.47;77.05;96077.15;1751101;81;21524;-71
2022/02/06 05:33:23;;;;;;;7.10;3.47;;;;;;;-5.52;77.84;96074.38;1723501;82;21070;-71
2022/02/06 05:35:49;;;;;;;3.77;2.40;;;;;;;-5.49;77.67;96076.22;1751028;82;21023;-72
2022/02/06 05:38:16;;;;;;;34.50;16.23;;;;;;;-5.42;77.97;96082.53;1751134;82;21391;-71
2022/02/06 05:40:42;;;;;;;78.97;30.50;;;;;;;-5.52;77.76;96083.37;1751156;82;21485;-71
2022/02/06 05:43:09;;;;;;;57.13;21.40;;;;;;;-5.57;77.54;96092.55;1751192;82;21026;-71
2022/02/06 05:45:35;;;;;;;103.03;39.63;;;;;;;-5.67;77.63;96088.61;1751145;81;21007;-70
2022/02/06 05:48:04;;;;;;;165.77;60.03;;;;;;;-5.75;77.61;96094.15;1751246;82;21034;-71
2022/02/06 05:50:31;;;;;;;155.73;57.73;;;;;;;-5.76;77.99;96093.69;1750882;82;21030;-71
2022/02/06 05:52:59;;;;;;;195.83;64.70;;;;;;;-5.78;78.59;96102.59;1751080;81;21512;-70
2022/02/06 05:55:25;;;;;;;132.60;50.70;;;;;;;-5.82;77.85;96104.53;1751057;81;21496;-71
2022/02/06 05:57:52;;;;;;;171.27;58.13;;;;;;;-5.89;78.29;96111.44;1750942;82;21054;-71
2022/02/06 06:00:19;;;;;;;281.63;89.73;;;;;;;-5.88;79.27;96110.62;1751163;81;21054;-70
2022/02/06 06:02:45;;;;;;;243.67;76.80;;;;;;;-5.86;78.33;96115.45;1751026;82;21010;-71
2022/02/06 06:05:12;;;;;;;101.63;35.50;;;;;;;-5.81;78.79;96114.00;1750788;81;21364;-70
2022/02/06 06:07:44;;;;;;;145.17;51.47;;;;;;;-5.78;79.00;96118.41;1751067;81;21051;-70
2022/02/06 06:10:12;;;;;;;185.25;63.55;;;;;;;-5.74;79.18;96124.20;1751308;82;21493;-71
2022/02/06 06:12:39;;;;;;;16.10;7.43;;;;;;;-5.65;78.90;96124.66;1750937;82;21027;-70
2022/02/06 06:15:07;;;;;;;35.83;12.53;;;;;;;-5.58;78.96;96125.47;1751039;81;21022;-70
2022/02/06 06:17:38;;;;;;;27.53;12.53;;;;;;;-5.55;78.36;96126.90;1751136;81;21010;-70
2022/02/06 06:20:11;;;;;;;139.97;55.33;;;;;;;-5.50;78.47;96132.28;1751013;82;21007;-71
2022/02/06 06:22:35;;;;;;;175.70;67.33;;;;;;;-5.53;79.07;96113.72;1750767;82;21035;-70
2022/02/06 06:25:03;;;;;;;204.70;78.93;;;;;;;-5.46;79.59;96111.95;1751052;82;21524;-71
2022/02/06 06:27:30;;;;;;;273.07;108.63;;;;;;;-5.29;79.43;96117.05;1751064;81;21541;-70
2022/02/06 06:29:56;;;;;;;233.77;88.53;;;;;;;-5.20;78.81;96121.78;1751034;81;21061;-70
2022/02/06 06:32:23;;;;;;;250.03;97.03;;;;;;;-5.10;78.95;96118.45;1751091;81;21066;-71
2022/02/06 06:34:51;;;;;;;259.57;108.50;;;;;;;-5.06;79.03;96133.66;1751093;82;21015;-71
2022/02/06 06:37:19;;;;;;;262.93;113.17;;;;;;;-4.95;79.36;96132.89;1751009;81;21073;-71
2022/02/06 06:39:48;;;;;;;284.90;113.10;;;;;;;-4.93;79.23;96130.87;1751069;81;21047;-71
2022/02/06 06:42:14;;;;;;;353.13;176.43;;;;;;;-4.83;78.97;96133.08;1751152;82;21010;-71
2022/02/06 06:44:43;;;;;;;359.87;167.60;;;;;;;-4.78;78.84;96133.31;1751032;81;21011;-71
2022/02/06 06:47:11;;;;;;;332.53;150.93;;;;;;;-4.64;79.26;96121.08;1750998;82;20983;-71
2022/02/06 06:49:38;;;;;;;320.30;142.43;;;;;;;-4.47;79.04;96113.75;1750944;81;20991;-71
2022/02/06 06:52:05;;;;;;;354.23;159.37;;;;;;;-4.32;79.03;96120.45;1751174;81;20975;-71
2022/02/06 06:54:40;;;;;;;244.80;109.90;;;;;;;-4.17;78.79;96113.01;1750953;82;21046;-71
2022/02/06 06:57:20;;;;;;;563.10;343.83;;;;;;;-3.90;79.14;96114.21;1750692;82;21023;-71
2022/02/06 06:59:58;;;;;;;203.33;98.80;;;;;;;-3.67;78.92;96104.91;1750010;82;21023;-72
2022/02/06 07:02:32;;;;;;;211.30;104.57;;;;;;;-3.43;78.45;96108.95;1747837;82;21031;-72
2022/02/06 07:04:40;;;;;;;158.90;75.03;;;;;;;-3.17;78.15;96107.08;1745628;81;21014;-72
2022/02/06 07:07:06;;;;;;;139.50;68.17;;;;;;;-2.96;77.65;96107.50;1751061;81;21062;-71
2022/02/06 07:09:33;;;;;;;164.90;80.07;;;;;;;-2.81;77.66;96099.50;1750997;81;21026;-71
2022/02/06 07:11:59;;;;;;;181.60;90.07;;;;;;;-2.66;77.05;96101.41;1751111;81;21006;-72
2022/02/06 07:14:26;;;;;;;192.30;91.53;;;;;;;-2.47;76.46;96106.87;1751056;81;21066;-72
2022/02/06 07:16:53;;;;;;;205.73;96.57;;;;;;;-2.32;76.62;96104.89;1751106;81;21031;-72
2022/02/06 07:19:20;;;;;;;186.50;92.37;;;;;;;-2.06;76.22;96104.63;1751029;82;20994;-72
2022/02/06 07:21:46;;;;;;;141.37;69.40;;;;;;;-1.87;75.74;96111.77;1750926;82;21066;-72
2022/02/06 07:24:15;;;;;;;113.07;57.53;;;;;;;-1.70;75.64;96109.81;1751233;82;20999;-72
2022/02/06 07:26:44;;;;;;;113.53;55.53;;;;;;;-1.48;75.70;96106.30;1751097;82;21007;-72
2022/02/06 07:29:15;;;;;;;88.50;43.97;;;;;;;-1.36;73.04;96099.85;1750928;82;21469;-72
2022/02/06 07:31:41;;;;;;;108.03;57.13;;;;;;;-1.15;73.08;96097.53;1767766;81;20991;-72
2022/02/06 07:34:07;;;;;;;93.47;49.97;;;;;;;-0.95;73.43;96085.27;1768349;81;21014;-72
2022/02/06 07:36:33;;;;;;;47.20;25.23;;;;;;;-0.75;72.61;96084.63;1768312;81;21054;-71
2022/02/06 07:39:00;;;;;;;31.80;16.77;;;;;;;-0.49;72.70;96077.67;1768639;81;21001;-72
2022/02/06 07:41:26;;;;;;;47.50;27.30;;;;;;;-0.28;72.53;96085.23;1768518;81;21480;-71
2022/02/06 07:43:53;;;;;;;55.23;30.00;;;;;;;-0.09;72.34;96082.80;1768452;81;21030;-72
2022/02/06 07:46:23;;;;;;;53.13;30.40;;;;;;;0.10;72.43;96071.23;1768547;81;21511;-71
2022/02/06 07:48:47;;;;;;;61.10;32.10;;;;;;;0.32;71.36;96070.15;1768196;81;21022;-71
2022/02/06 07:51:14;;;;;;;59.27;31.77;;;;;;;0.58;71.61;96066.97;1768400;81;21022;-71
2022/02/06 07:53:40;;;;;;;37.83;21.33;;;;;;;0.84;71.31;96056.88;1768598;81;21022;-71
2022/02/06 07:56:07;;;;;;;50.13;27.13;;;;;;;0.93;70.10;96050.15;1768486;81;21037;-71
2022/02/06 07:58:33;;;;;;;21.57;12.07;;;;;;;1.00;69.84;96052.07;1768570;81;21499;-72
2022/02/06 08:01:00;;;;;;;13.47;6.67;;;;;;;1.12;67.40;96048.48;1768473;81;21022;-72
2022/02/06 08:03:26;;;;;;;13.87;7.63;;;;;;;1.22;65.64;96043.97;1768505;81;21019;-72
2022/02/06 08:05:53;;;;;;;10.70;5.40;;;;;;;1.38;67.51;96039.14;1768300;81;21019;-72
2022/02/06 08:08:20;;;;;;;5.33;3.20;;;;;;;1.52;63.03;96040.36;1768402;81;20994;-72
2022/02/06 08:10:46;;;;;;;9.83;5.13;;;;;;;1.58;63.36;96041.78;1768338;81;20990;-72
2022/02/06 08:13:24;;;;;;;4.60;2.47;;;;;;;1.65;63.07;96035.88;1768488;81;21010;-72
2022/02/06 08:15:41;;;;;;;3.47;1.63;;;;;;;1.88;61.77;96033.79;1766272;81;21025;-72
2022/02/06 08:18:08;;;;;;;2.53;1.20;;;;;;;2.09;59.94;96021.68;1768410;81;21491;-72
2022/02/06 08:20:38;;;;;;;3.80;2.70;;;;;;;2.29;57.78;96025.09;1768521;81;20958;-72
2022/02/06 08:23:03;;;;;;;1.27;0.90;;;;;;;2.41;59.36;96016.23;1768244;81;20991;-72
2022/02/06 08:25:32;;;;;;;5.13;3.40;;;;;;;2.54;54.84;96005.62;1768374;81;21010;-72
2022/02/06 08:27:58;;;;;;;4.43;1.70;;;;;;;2.68;57.43;95999.37;1768413;81;21092;-72
2022/02/06 08:30:25;;;;;;;5.47;2.83;;;;;;;2.82;55.21;96000.48;1765103;81;21011;-73
2022/02/06 08:32:53;;;;;;;4.83;2.50;;;;;;;2.93;54.81;95998.09;1760118;81;20975;-72
2022/02/06 08:35:20;;;;;;;4.17;2.00;;;;;;;3.11;55.42;95997.09;1760276;81;21033;-73
2022/02/06 08:37:46;;;;;;;8.03;6.13;;;;;;;3.32;56.70;95999.59;1760481;81;21559;-73
2022/02/06 08:40:16;;;;;;;4.00;3.30;;;;;;;3.44;54.21;95997.17;1760255;81;21061;-73
2022/02/06 08:42:44;;;;;;;5.47;3.00;;;;;;;3.51;53.89;95998.16;1760397;81;21051;-73
2022/02/06 08:45:16;;;;;;;3.60;1.97;;;;;;;3.59;53.37;95994.80;1760312;81;21015;-73
2022/02/06 08:47:43;;;;;;;4.53;3.60;;;;;;;3.55;50.64;95989.06;1760335;81;21042;-73
2022/02/06 08:50:12;;;;;;;7.37;4.57;;;;;;;3.62;51.21;95990.05;1760194;81;21002;-73
2022/02/06 08:52:39;;;;;;;5.97;3.50;;;;;;;3.87;53.82;95989.53;1760258;81;21488;-74
2022/02/06 08:55:09;;;;;;;5.37;2.10;;;;;;;4.12;54.21;95992.03;1760496;81;21018;-73
2022/02/06 08:57:37;;;;;;;3.77;2.57;;;;;;;4.39;52.89;95982.80;1760315;81;21054;-73
2022/02/06 09:00:07;;;;;;;6.07;3.30;;;;;;;4.58;53.30;95981.69;1759999;81;21058;-73
2022/02/06 09:02:34;;;;;;;7.57;2.97;;;;;;;4.64;49.63;95980.46;1762087;81;21563;-73
2022/02/06 09:05:02;;;;;;;3.27;2.10;;;;;;;4.63;51.08;95976.08;1760329;81;21014;-73
2022/02/06 09:07:29;;;;;;;4.93;2.60;;;;;;;4.63;51.45;95976.95;1760250;81;21532;-73
2022/02/06 09:10:00;;;;;;;5.53;3.03;;;;;;;4.68;51.52;95982.23;1760442;81;20986;-73
2022/02/06 09:12:25;;;;;;;5.57;3.20;;;;;;;4.82;51.97;95981.95;1759968;81;21090;-73
2022/02/06 09:14:51;;;;;;;9.10;4.83;;;;;;;4.92;48.89;95975.94;1760181;81;20994;-73
2022/02/06 09:17:19;;;;;;;3.73;2.20;;;;;;;4.92;49.01;95986.84;1760027;81;21038;-73
2022/02/06 09:19:47;;;;;;;3.83;2.00;;;;;;;4.98;49.94;95994.29;1760332;81;20962;-73
2022/02/06 09:22:15;;;;;;;3.73;1.73;;;;;;;4.95;48.58;95983.81;1759951;81;21007;-74
2022/02/06 09:24:42;;;;;;;5.17;3.03;;;;;;;5.01;48.86;95988.64;1759997;81;21097;-74
2022/02/06 09:27:10;;;;;;;4.53;2.30;;;;;;;4.95;47.91;95983.81;1760407;81;21002;-73
2022/02/06 09:29:38;;;;;;;5.03;2.50;;;;;;;4.88;46.91;95987.22;1761621;81;21026;-74
2022/02/06 09:37:06;;;;;;;8.63;4.33;;;;;;;5.35;48.06;95978.05;1750442;82;21031;-74
2022/02/06 09:39:37;;;;;;;3.33;2.50;;;;;;;5.46;47.56;95973.77;1751091;82;21074;-74
2022/02/06 09:42:03;;;;;;;3.80;2.30;;;;;;;5.56;48.29;95966.41;1750550;82;21015;-74
2022/02/06 09:44:31;;;;;;;4.47;1.70;;;;;;;5.69;46.76;95962.57;1751150;81;21521;-74
2022/02/06 09:46:58;;;;;;;4.53;2.80;;;;;;;5.71;46.90;95951.23;1751601;81;21022;-74
2022/02/06 09:49:29;;;;;;;5.60;2.80;;;;;;;5.85;47.23;95947.41;1750723;82;21106;-74
2022/02/06 09:51:56;;;;;;;4.40;1.70;;;;;;;6.03;45.67;95941.41;1721677;82;21002;-74
2022/02/06 09:54:25;;;;;;;4.50;1.43;;;;;;;6.12;45.54;95934.88;1751251;82;20995;-74
2022/02/06 09:56:55;;;;;;;5.37;2.00;;;;;;;6.23;44.60;95924.03;1751044;82;21058;-74
2022/02/06 09:59:25;;;;;;;5.17;2.60;;;;;;;6.30;44.59;95914.45;1751169;82;21038;-74
2022/02/06 10:01:56;;;;;;;4.73;2.90;;;;;;;6.37;44.39;95912.27;1751296;82;21046;-74
2022/02/06 10:04:30;;;;;;;5.33;2.60;;;;;;;6.29;44.28;95908.31;1751006;81;21030;-74
2022/02/06 10:07:12;;;;;;;4.57;2.40;;;;;;;6.22;45.02;95912.22;1751166;82;21481;-74
2022/02/06 10:09:59;;;;;;;4.87;1.97;;;;;;;6.15;45.07;95901.27;1721969;82;21031;-74
2022/02/06 10:12:36;;;;;;;3.03;1.40;;;;;;;6.07;45.30;95890.77;1751106;82;20990;-74
2022/02/06 10:15:05;;;;;;;2.17;1.27;;;;;;;6.03;43.62;95885.09;1750827;82;21089;-74
2022/02/06 10:17:33;;;;;;;2.87;0.90;;;;;;;5.95;43.04;95883.77;1751077;82;21485;-74
2022/02/06 10:20:01;;;;;;;3.07;0.83;;;;;;;5.91;43.42;95881.95;1750830;82;21027;-74
2022/02/06 10:23:18;;;;;;;2.80;1.63;;;;;;;5.70;40.87;95886.67;1751085;81;20999;-74
2022/02/06 10:25:05;;;;;;;2.30;1.20;;;;;;;5.69;43.15;95892.75;1738390;82;21511;-74
2022/02/06 10:28:21;;;;;;;2.10;1.10;;;;;;;5.49;42.39;95883.48;1750738;82;21011;-74
2022/02/06 10:30:42;;;;;;;6.70;2.90;;;;;;;5.40;43.18;95876.91;1747132;82;21036;-74
2022/02/06 10:33:12;;;;;;;2.97;1.80;;;;;;;5.38;43.15;95872.09;1751078;81;21015;-74
2022/02/06 10:35:45;;;;;;;3.07;1.37;;;;;;;5.33;44.46;95873.80;1751013;82;20995;-74
2022/02/06 10:38:20;;;;;;;1.98;0.80;;;;;;;5.31;44.37;95867.69;1751126;82;21049;-74
2022/02/06 10:41:11;;;;;;;1.30;0.60;;;;;;;5.31;43.95;95868.98;1750504;82;21085;-73
2022/02/06 10:44:06;;;;;;;0.73;0.60;;;;;;;5.17;42.96;95858.02;1751178;82;21019;-74
2022/02/06 10:46:46;;;;;;;2.30;1.20;;;;;;;5.03;42.40;95849.19;1751170;82;21072;-73
2022/02/06 10:49:16;;;;;;;2.37;0.90;;;;;;;5.01;42.76;95845.69;1751150;81;21019;-74
2022/02/06 10:51:49;;;;;;;3.40;1.67;;;;;;;5.13;43.92;95844.46;1750419;81;21086;-74
2022/02/06 10:54:30;;;;;;;2.37;1.30;;;;;;;5.19;43.61;95832.75;1751066;81;20987;-74
2022/02/06 10:57:12;;;;;;;2.27;1.27;;;;;;;5.21;42.78;95827.51;1750804;82;21055;-74
2022/02/06 10:59:49;;;;;;;2.70;1.50;;;;;;;5.22;43.39;95821.42;1751062;81;21003;-74
2022/02/06 11:02:29;;;;;;;8.23;4.17;;;;;;;5.26;43.97;95818.38;1751008;82;21018;-75
2022/02/06 11:05:20;;;;;;;3.30;1.57;;;;;;;5.29;43.86;95814.47;1751036;82;21018;-73
2022/02/06 11:07:58;;;;;;;1.93;1.13;;;;;;;5.34;42.93;95804.90;1750900;81;21027;-73
2022/02/06 11:10:27;;;;;;;2.30;1.40;;;;;;;5.27;42.61;95797.91;1751047;82;21069;-73
2022/02/06 11:12:57;;;;;;;1.90;0.70;;;;;;;5.30;43.81;95797.48;1750653;81;21047;-73
2022/02/06 11:15:37;;;;;;;1.47;0.90;;;;;;;5.23;41.91;95795.70;1751193;82;21053;-73
2022/02/06 11:18:12;;;;;;;2.57;1.40;;;;;;;5.07;43.06;95789.52;1750846;81;21485;-72
2022/02/06 11:20:46;;;;;;;3.80;2.03;;;;;;;5.06;44.06;95789.05;1750954;81;21009;-73
2022/02/06 11:23:12;;;;;;;2.20;1.03;;;;;;;4.99;43.63;95790.78;1736305;82;21010;-73
2022/02/06 11:25:39;;;;;;;2.30;1.00;;;;;;;4.93;44.93;95797.26;1751090;82;21011;-73
2022/02/06 11:28:07;;;;;;;4.23;2.90;;;;;;;4.88;45.15;95788.95;1750905;82;21046;-72
2022/02/06 11:30:34;;;;;;;2.07;1.03;;;;;;;4.87;45.54;95801.59;1751747;81;21003;-73
2022/02/06 11:33:01;;;;;;;8.27;4.87;;;;;;;4.82;42.78;95795.45;1760154;81;21029;-72
2022/02/06 11:35:30;;;;;;;3.70;1.60;;;;;;;4.82;42.50;95792.41;1760292;81;21127;-72
2022/02/06 11:44:14;;;;;;;20.07;13.93;;;;;;;5.07;44.62;95778.19;1665773;86;20992;-72
2022/02/06 11:47:01;;;;;;;6.13;4.07;;;;;;;5.24;44.10;95768.69;1690573;81;21073;-73
2022/02/06 11:49:27;;;;;;;5.33;2.80;;;;;;;5.47;43.52;95760.93;1760421;81;21009;-73
2022/02/06 11:51:57;;;;;;;1.30;0.90;;;;;;;5.70;44.80;95758.83;1760489;81;21030;-73
2022/02/06 11:54:29;;;;;;;3.53;1.70;;;;;;;5.83;42.67;95756.67;1760688;81;21037;-73
2022/02/06 11:57:23;;;;;;;8.57;4.13;;;;;;;5.89;41.96;95746.64;1759490;81;21018;-73
2022/02/06 12:00:07;;;;;;;4.83;3.05;;;;;;;5.90;39.95;95732.25;1760586;81;21015;-73
2022/02/06 12:02:42;;;;;;;10.13;7.00;;;;;;;5.97;41.64;95743.22;1760256;81;21007;-73
2022/02/06 12:05:24;;;;;;;5.33;3.93;;;;;;;6.09;41.23;95738.41;1759550;81;20978;-73
2022/02/06 12:08:10;;;;;;;3.80;2.87;;;;;;;6.19;40.62;95730.98;1760333;81;21015;-73
2022/02/06 12:11:00;;;;;;;1.37;0.93;;;;;;;6.47;40.54;95725.30;1760380;81;20983;-73
2022/02/06 12:13:30;;;;;;;2.70;1.90;;;;;;;6.52;39.77;95723.13;1760524;81;21513;-73
2022/02/06 12:16:04;;;;;;;3.67;2.77;;;;;;;6.42;40.06;95712.64;1760182;81;20982;-73
2022/02/06 12:18:35;;;;;;;3.77;2.30;;;;;;;6.32;40.44;95706.97;1760506;81;20967;-73
2022/02/06 12:21:21;;;;;;;3.60;1.80;;;;;;;6.19;41.47;95712.65;1760539;81;21519;-73
2022/02/06 12:23:54;;;;;;;1.90;1.60;;;;;;;6.14;41.97;95709.16;1760013;81;21073;-73
2022/02/06 12:26:37;;;;;;;1.10;0.57;;;;;;;6.00;41.57;95707.86;1760337;81;20971;-73
2022/02/06 12:29:20;;;;;;;1.83;1.10;;;;;;;5.82;39.32;95706.47;1759983;81;21033;-73
2022/02/06 12:32:05;;;;;;;3.73;1.93;;;;;;;5.64;40.70;95708.62;1760250;81;21129;-73
2022/02/06 12:36:56;;;;;;;1.57;0.98;;;;;;;5.55;41.17;95702.94;1760781;81;20995;-73
2022/02/06 12:37:22;;;;;;;3.93;1.70;;;;;;;5.53;42.16;95696.82;1756847;81;22260;-73
2022/02/06 12:39:47;;;;;;;3.73;2.97;;;;;;;5.50;41.59;95695.51;1760096;81;20993;-73
2022/02/06 12:42:17;;;;;;;5.30;3.00;;;;;;;5.42;41.83;95694.19;1760428;81;21022;-73
2022/02/06 12:44:44;;;;;;;5.27;2.90;;;;;;;5.35;42.66;95700.70;1760312;81;21531;-73
2022/02/06 12:47:13;;;;;;;4.30;3.10;;;;;;;5.26;43.91;95701.97;1760333;81;21018;-73
2022/02/06 12:49:41;;;;;;;6.20;3.97;;;;;;;5.18;44.37;95702.80;1760269;81;21026;-73
2022/02/06 12:52:08;;;;;;;2.30;1.30;;;;;;;5.11;42.64;95700.16;1759889;81;21023;-73
2022/02/06 12:54:35;;;;;;;1.97;1.50;;;;;;;5.05;42.72;95697.09;1760398;81;21427;-73
2022/02/06 12:57:03;;;;;;;1.60;1.00;;;;;;;4.98;42.44;95690.08;1760363;81;21062;-73
2022/02/06 12:59:32;;;;;;;3.37;2.10;;;;;;;4.92;42.56;95691.38;1760325;81;21022;-73
2022/02/06 13:02:00;;;;;;;2.83;1.60;;;;;;;4.89;43.05;95696.16;1760140;81;21063;-73
2022/02/06 13:04:36;;;;;;;2.90;1.30;;;;;;;4.90;43.97;95690.05;1760320;81;20994;-73
2022/02/06 13:07:04;;;;;;;1.22;1.00;;;;;;;4.89;43.30;95689.62;1759913;81;21037;-73
2022/02/06 13:09:39;;;;;;;1.87;1.30;;;;;;;4.85;42.10;95683.92;1760468;81;20965;-72
2022/02/06 13:12:23;;;;;;;4.27;2.17;;;;;;;4.85;42.99;95683.92;1760256;81;21069;-73
2022/02/06 13:14:57;;;;;;;3.87;1.90;;;;;;;4.83;44.29;95685.65;1758665;81;21038;-73
2022/02/06 13:23:01;;;;;;;4.60;3.03;;;;;;;4.66;43.66;95675.53;1760081;81;21108;-73
2022/02/06 13:25:46;;;;;;;3.60;2.50;;;;;;;4.64;43.72;95676.86;1759446;81;21041;-73
2022/02/06 13:33:59;;;;;;;5.43;3.50;;;;;;;4.48;46.37;95668.47;1760116;81;21031;-73
2022/02/06 13:36:41;;;;;;;37.07;16.77;;;;;;;4.46;47.58;95673.70;1759369;81;21066;-72
2022/02/06 13:39:12;;;;;;;8.13;4.50;;;;;;;4.47;47.68;95671.95;1759367;81;21070;-72
2022/02/06 13:41:38;;;;;;;6.73;4.43;;;;;;;4.49;44.30;95659.78;1760156;81;21070;-73
2022/02/06 13:44:16;;;;;;;3.87;2.10;;;;;;;4.54;44.11;95647.62;1760216;81;21153;-72
2022/02/06 13:46:43;;;;;;;3.30;2.63;;;;;;;4.50;46.11;95654.98;1760332;81;21007;-72
2022/02/06 13:49:10;;;;;;;3.47;1.97;;;;;;;4.48;45.83;95637.98;1736476;81;21022;-72
2022/02/06 13:51:45;;;;;;;3.03;1.30;;;;;;;4.45;45.12;95642.33;1760494;81;21517;-72
2022/02/06 13:54:09;;;;;;;5.00;3.63;;;;;;;4.41;43.44;95646.67;1759895;81;21038;-73
2022/02/06 13:56:37;;;;;;;5.53;3.63;;;;;;;4.36;42.36;95624.88;1760172;81;21086;-73
2022/02/06 13:59:08;;;;;;;3.10;1.30;;;;;;;4.32;41.79;95627.02;1760434;81;21472;-72
2022/02/06 14:01:41;;;;;;;1.23;1.13;;;;;;;4.26;40.41;95621.33;1760402;81;21090;-73
2022/02/06 14:04:26;;;;;;;1.67;1.10;;;;;;;4.24;43.35;95610.44;1760715;81;20994;-73